Time;durP1;ratioP1;P1;durP2;ratioP2;P2;SDS_P1;SDS_P2;PMS_P1;PMS_P2;Temp;Humidity;BMP_temperature;BMP_pressure;BME280_temperature;BME280_humidity;BME280_pressure;Samples;Min_cycle;Max_cycle;Signal;HPM_P1;HPM_P2
2022/05/23 00:00:19;;;;;;;1.85;1.45;;;22.20;58.80;;;;;;5011680;28;20264;-72
2022/05/23 00:02:46;;;;;;;1.30;1.20;;;22.20;58.70;;;;;;5027938;28;20168;-71
2022/05/23 00:05:12;;;;;;;2.17;1.30;;;22.20;58.70;;;;;;4995215;28;20254;-71
2022/05/23 00:07:44;;;;;;;1.30;1.20;;;22.20;58.70;;;;;;5027969;28;20196;-71
2022/05/23 00:10:13;;;;;;;1.20;1.10;;;22.20;58.70;;;;;;5011336;28;20195;-71
2022/05/23 00:12:39;;;;;;;1.30;1.20;;;22.20;58.70;;;;;;5014518;28;20219;-71
2022/05/23 00:15:09;;;;;;;1.70;1.20;;;22.20;58.70;;;;;;5014622;28;20235;-71
2022/05/23 00:17:35;;;;;;;1.00;1.00;;;22.20;58.70;;;;;;4999930;28;20223;-71
2022/05/23 00:20:09;;;;;;;1.38;1.10;;;22.20;58.70;;;;;;4999221;28;20190;-71
2022/05/23 00:22:35;;;;;;;0.90;0.90;;;22.20;58.70;;;;;;5016559;28;20230;-72
2022/05/23 00:25:01;;;;;;;1.60;1.20;;;22.20;58.80;;;;;;5015217;28;20223;-72
2022/05/23 00:27:27;;;;;;;1.30;1.20;;;22.20;58.80;;;;;;5015322;28;20191;-72
2022/05/23 00:29:55;;;;;;;1.40;1.30;;;22.20;58.70;;;;;;5031801;28;20195;-72
2022/05/23 00:35:18;;;;;;;1.25;1.15;;;22.10;58.70;;;;;;5014869;28;20208;-72
2022/05/23 00:37:45;;;;;;;1.30;1.20;;;22.20;58.80;;;;;;5001826;28;20223;-72
2022/05/23 00:43:13;;;;;;;1.30;1.17;;;22.20;58.70;;;;;;5014841;28;20654;-72
2022/05/23 00:43:39;;;;;;;1.27;1.13;;;22.20;58.70;;;;;;5014657;28;20342;-72
2022/05/23 00:46:05;;;;;;;1.00;1.00;;;22.20;59.30;;;;;;5015181;28;20682;-72
2022/05/23 00:48:32;;;;;;;1.25;1.08;;;22.20;58.70;;;;;;5031465;28;20192;-71
2022/05/23 00:51:09;;;;;;;1.33;1.10;;;22.20;58.70;;;;;;5015080;28;20650;-72
2022/05/23 00:53:46;;;;;;;1.23;1.10;;;22.20;58.70;;;;;;5014614;28;20214;-72
2022/05/23 00:56:16;;;;;;;1.33;1.23;;;22.20;58.70;;;;;;4998828;28;20293;-73
2022/05/23 00:58:49;;;;;;;1.20;1.10;;;22.20;58.70;;;;;;5014768;28;20188;-72
2022/05/23 01:01:22;;;;;;;1.38;1.27;;;22.20;58.70;;;;;;5014632;28;20172;-73
2022/05/23 01:03:48;;;;;;;1.30;1.20;;;22.20;58.70;;;;;;5014725;28;20176;-72
2022/05/23 01:06:14;;;;;;;1.40;1.30;;;22.20;58.70;;;;;;5014407;28;20188;-72
2022/05/23 01:08:45;;;;;;;1.10;1.00;;;22.20;58.70;;;;;;5014549;28;20280;-72
2022/05/23 01:11:12;;;;;;;0.93;0.93;;;22.10;58.60;;;;;;5014433;28;20227;-72
2022/05/23 01:13:39;;;;;;;2.35;1.50;;;22.10;58.60;;;;;;5014320;28;20176;-72
2022/05/23 01:16:05;;;;;;;1.15;1.02;;;22.20;58.70;;;;;;5014421;28;20246;-72
2022/05/23 01:18:36;;;;;;;1.10;1.10;;;22.20;58.70;;;;;;5014010;28;20192;-72
2022/05/23 01:21:07;;;;;;;1.20;1.10;;;22.10;58.60;;;;;;4997909;28;20207;-72
2022/05/23 01:23:55;;;;;;;1.10;1.00;;;22.20;58.70;;;;;;5013465;28;20267;-72
2022/05/23 01:26:24;;;;;;;1.00;1.00;;;22.10;58.60;;;;;;5031237;28;20251;-72
2022/05/23 01:28:53;;;;;;;2.60;1.20;;;22.20;58.70;;;;;;4997941;28;20188;-72
2022/05/23 01:31:41;;;;;;;1.75;1.38;;;22.10;58.60;;;;;;5013968;28;20182;-72
2022/05/23 01:34:29;;;;;;;1.30;1.20;;;22.20;58.60;;;;;;5046957;28;20211;-72
2022/05/23 01:37:00;;;;;;;1.45;1.35;;;22.20;58.60;;;;;;4998154;28;20242;-72
2022/05/23 01:39:28;;;;;;;1.40;1.30;;;22.10;58.60;;;;;;5013633;28;20573;-72
2022/05/23 01:41:56;;;;;;;1.13;1.00;;;22.10;58.50;;;;;;5014090;28;20195;-73
2022/05/23 01:44:22;;;;;;;1.20;1.02;;;22.20;58.60;;;;;;4997778;28;20200;-72
2022/05/23 01:47:12;;;;;;;2.15;1.25;;;22.10;58.60;;;;;;5013863;28;20172;-72
2022/05/23 01:49:50;;;;;;;1.65;1.48;;;22.10;58.50;;;;;;5014769;28;20164;-72
2022/05/23 01:52:36;;;;;;;1.15;1.10;;;22.10;58.50;;;;;;5013912;28;20194;-72
2022/05/23 01:55:09;;;;;;;1.98;1.55;;;22.10;58.50;;;;;;5013420;28;20212;-72
2022/05/23 01:57:36;;;;;;;1.25;1.10;;;22.10;58.40;;;;;;5013855;28;20294;-72
2022/05/23 02:02:52;;;;;;;1.25;1.20;;;22.10;58.50;;;;;;5013512;28;20187;-72
2022/05/23 02:05:20;;;;;;;1.45;1.20;;;22.10;58.50;;;;;;5013655;28;20271;-72
2022/05/23 02:07:46;;;;;;;1.48;1.10;;;22.10;58.50;;;;;;5030322;28;20326;-72
2022/05/23 02:10:14;;;;;;;1.40;1.30;;;22.10;58.50;;;;;;5012993;28;20191;-72
2022/05/23 02:12:44;;;;;;;1.45;1.10;;;22.10;58.50;;;;;;5013396;28;20168;-72
2022/05/23 02:15:16;;;;;;;1.08;1.00;;;22.10;58.50;;;;;;5029441;28;20701;-72
2022/05/23 02:18:03;;;;;;;1.58;1.48;;;22.10;58.50;;;;;;5002758;28;20192;-73
2022/05/23 02:20:30;;;;;;;1.88;1.40;;;22.10;58.50;;;;;;5013040;28;20196;-72
2022/05/23 02:22:56;;;;;;;1.33;1.23;;;22.10;58.50;;;;;;5013279;28;20187;-72
2022/05/23 02:25:26;;;;;;;1.20;1.10;;;22.10;58.50;;;;;;5012867;28;20263;-72
2022/05/23 02:27:53;;;;;;;1.13;1.05;;;22.10;58.40;;;;;;5013253;28;20242;-72
2022/05/23 02:30:20;;;;;;;1.65;1.38;;;22.10;58.50;;;;;;5012821;28;20188;-72
2022/05/23 02:32:48;;;;;;;1.35;1.20;;;22.10;58.50;;;;;;4996793;28;20184;-72
2022/05/23 02:35:17;;;;;;;2.50;1.20;;;22.10;59.10;;;;;;4995037;28;20200;-71
2022/05/23 02:37:44;;;;;;;1.30;1.20;;;22.10;58.50;;;;;;4996496;28;20538;-72
2022/05/23 02:40:11;;;;;;;1.30;1.20;;;22.10;58.50;;;;;;5012813;28;20279;-71
2022/05/23 02:42:37;;;;;;;1.17;1.08;;;22.10;58.50;;;;;;5012938;28;20729;-72
2022/05/23 02:45:06;;;;;;;1.10;1.00;;;22.10;58.50;;;;;;4996493;28;20287;-72
2022/05/23 02:47:34;;;;;;;1.30;1.20;;;22.10;58.50;;;;;;5012460;28;20220;-72
2022/05/23 02:50:05;;;;;;;1.42;1.15;;;22.10;58.50;;;;;;5012416;28;20184;-72
2022/05/23 02:52:44;;;;;;;1.58;1.17;;;22.10;58.50;;;;;;5012906;28;20217;-72
2022/05/23 02:55:30;;;;;;;1.33;1.23;;;22.10;58.50;;;;;;5011576;28;20228;-72
2022/05/23 02:57:57;;;;;;;1.55;1.42;;;22.10;58.50;;;;;;5012206;28;20188;-72
2022/05/23 03:00:27;;;;;;;1.50;1.40;;;22.10;58.50;;;;;;5012470;28;20184;-71
2022/05/23 03:03:03;;;;;;;1.20;1.10;;;22.10;58.50;;;;;;5012278;28;20533;-72
2022/05/23 03:05:45;;;;;;;1.30;1.20;;;22.10;58.50;;;;;;5012276;28;20207;-72
2022/05/23 03:08:15;;;;;;;2.28;1.33;;;22.10;58.50;;;;;;5012231;28;20310;-72
2022/05/23 03:10:41;;;;;;;1.13;1.00;;;22.10;58.50;;;;;;5012062;28;20668;-72
2022/05/23 03:13:09;;;;;;;0.98;0.95;;;22.10;58.60;;;;;;5028695;28;20184;-72
2022/05/23 03:15:36;;;;;;;1.77;1.00;;;22.10;58.60;;;;;;5012006;28;20688;-72
2022/05/23 03:18:03;;;;;;;1.27;1.17;;;22.10;58.60;;;;;;5012143;28;20185;-72
2022/05/23 03:20:31;;;;;;;1.20;1.10;;;22.10;58.50;;;;;;5011778;28;20386;-72
2022/05/23 03:28:36;;;;;;;1.30;1.13;;;22.10;58.50;;;;;;5011925;28;20188;-72
2022/05/23 03:31:04;;;;;;;2.47;1.35;;;22.10;58.60;;;;;;5011741;28;20219;-72
2022/05/23 03:33:32;;;;;;;1.30;1.20;;;22.10;58.60;;;;;;5011637;28;20179;-73
2022/05/23 03:35:59;;;;;;;1.20;1.10;;;22.10;58.60;;;;;;4995907;28;20235;-72
2022/05/23 03:38:28;;;;;;;1.10;1.10;;;22.10;59.20;;;;;;4995765;28;20192;-71
2022/05/23 03:40:54;;;;;;;1.33;1.23;;;22.10;58.60;;;;;;5028251;28;20282;-72
2022/05/23 03:43:20;;;;;;;1.02;1.02;;;22.10;58.60;;;;;;5011599;28;20183;-72
2022/05/23 03:45:47;;;;;;;1.27;1.17;;;22.10;58.60;;;;;;5011220;28;20215;-71
2022/05/23 03:48:13;;;;;;;1.10;1.00;;;22.10;58.60;;;;;;5011626;28;20696;-71
2022/05/23 03:50:40;;;;;;;1.50;1.40;;;22.10;58.60;;;;;;5027978;28;20191;-72
2022/05/23 03:53:07;;;;;;;1.02;0.95;;;22.10;58.60;;;;;;5011527;28;20194;-71
2022/05/23 03:55:39;;;;;;;1.40;1.30;;;22.10;58.60;;;;;;5011325;28;20219;-72
2022/05/23 03:58:27;;;;;;;1.77;1.17;;;22.10;58.60;;;;;;5011847;28;20215;-72
2022/05/23 04:01:18;;;;;;;1.40;1.30;;;22.10;58.60;;;;;;4997939;28;20189;-71
2022/05/23 04:03:48;;;;;;;1.08;1.08;;;22.10;58.60;;;;;;5011532;28;20250;-72
2022/05/23 04:06:15;;;;;;;1.85;1.35;;;22.10;58.60;;;;;;4995369;28;20462;-71
2022/05/23 04:08:50;;;;;;;1.40;1.30;;;22.10;58.60;;;;;;5028146;28;20222;-71
2022/05/23 04:11:16;;;;;;;1.25;1.23;;;22.10;58.60;;;;;;5011651;28;20212;-71
2022/05/23 04:13:42;;;;;;;1.10;1.10;;;22.10;58.60;;;;;;5027399;28;20198;-71
2022/05/23 04:16:08;;;;;;;1.50;1.33;;;22.10;58.70;;;;;;5011842;28;20212;-71
2022/05/23 04:18:36;;;;;;;1.40;1.30;;;22.10;58.70;;;;;;4995322;28;20191;-71
2022/05/23 04:21:03;;;;;;;1.08;1.08;;;22.10;58.70;;;;;;5011048;28;20176;-72
2022/05/23 04:23:31;;;;;;;1.30;1.20;;;22.10;58.70;;;;;;4995248;28;20218;-72
2022/05/23 04:26:06;;;;;;;1.08;1.08;;;22.10;58.80;;;;;;5028090;28;20192;-73
2022/05/23 04:28:33;;;;;;;1.60;1.30;;;22.10;58.80;;;;;;5011289;28;20176;-72
2022/05/23 04:31:00;;;;;;;1.50;1.40;;;22.10;58.80;;;;;;5012701;28;20176;-72
2022/05/23 04:36:20;;;;;;;1.60;1.50;;;22.10;58.80;;;;;;5011178;28;20207;-72
2022/05/23 04:38:48;;;;;;;1.73;1.63;;;22.10;58.80;;;;;;5011152;28;20549;-72
2022/05/23 04:41:14;;;;;;;1.45;1.17;;;22.10;58.90;;;;;;4994759;28;20188;-74
2022/05/23 04:43:51;;;;;;;2.25;1.40;;;22.10;58.90;;;;;;5011170;28;20186;-74
2022/05/23 04:46:22;;;;;;;1.40;1.30;;;22.10;58.90;;;;;;5011402;28;20193;-74
2022/05/23 04:51:55;;;;;;;1.65;1.30;;;22.10;58.90;;;;;;5011284;28;20283;-74
2022/05/23 04:54:27;;;;;;;1.73;1.55;;;22.10;58.90;;;;;;5011028;28;20215;-74
2022/05/23 04:56:54;;;;;;;1.80;1.70;;;22.10;58.90;;;;;;5010963;28;20211;-74
2022/05/23 04:59:30;;;;;;;1.65;1.55;;;22.10;59.00;;;;;;5013900;28;20222;-74
2022/05/23 05:01:56;;;;;;;1.25;1.15;;;22.10;59.00;;;;;;5048079;28;20183;-75
2022/05/23 05:04:21;;;;;;;1.70;1.60;;;22.10;59.20;;;;;;5014826;28;20202;-75
2022/05/23 05:06:47;;;;;;;1.50;1.40;;;22.10;59.20;;;;;;5014720;28;20190;-74
2022/05/23 05:09:13;;;;;;;1.52;1.40;;;22.10;59.10;;;;;;5031136;28;20187;-74
2022/05/23 05:11:40;;;;;;;1.58;1.42;;;22.10;59.80;;;;;;5014520;28;20187;-75
2022/05/23 05:14:11;;;;;;;1.30;1.20;;;22.10;59.20;;;;;;5014415;28;20230;-74
2022/05/23 05:16:40;;;;;;;2.35;1.40;;;22.10;59.20;;;;;;5014421;28;20270;-74
2022/05/23 05:19:08;;;;;;;1.40;1.30;;;22.10;59.10;;;;;;5030840;28;20180;-74
2022/05/23 05:21:42;;;;;;;1.60;1.50;;;22.10;59.10;;;;;;5014738;28;20168;-75
2022/05/23 05:24:44;;;;;;;1.38;1.27;;;22.10;59.10;;;;;;5014498;28;20214;-75
2022/05/23 05:27:27;;;;;;;1.52;1.40;;;22.10;59.10;;;;;;5014121;28;20184;-75
2022/05/23 05:29:53;;;;;;;1.90;1.60;;;22.10;59.20;;;;;;5030881;28;20188;-75
2022/05/23 05:32:26;;;;;;;1.30;1.20;;;22.10;59.20;;;;;;5014027;28;20199;-75
2022/05/23 05:35:02;;;;;;;1.52;1.42;;;22.10;59.20;;;;;;4997491;28;20262;-74
2022/05/23 05:37:44;;;;;;;1.90;1.17;;;22.10;59.20;;;;;;5014342;28;20180;-75
2022/05/23 05:40:18;;;;;;;1.48;1.38;;;22.10;59.20;;;;;;5030394;28;20175;-74
2022/05/23 05:42:53;;;;;;;1.85;1.60;;;22.10;59.20;;;;;;5030746;28;20203;-75
2022/05/23 05:45:47;;;;;;;1.70;1.60;;;22.10;59.20;;;;;;5013924;28;20207;-75
2022/05/23 05:48:36;;;;;;;2.22;1.30;;;22.10;59.20;;;;;;5014058;28;20198;-75
2022/05/23 05:51:02;;;;;;;1.73;1.60;;;22.10;59.30;;;;;;5013623;28;20188;-75
2022/05/23 05:53:32;;;;;;;1.63;1.30;;;22.10;59.20;;;;;;5030557;28;20169;-75
2022/05/23 05:56:04;;;;;;;1.83;1.60;;;22.10;59.20;;;;;;5013767;28;20250;-75
2022/05/23 05:58:33;;;;;;;1.88;1.30;;;22.10;59.30;;;;;;5013586;28;20194;-74
2022/05/23 06:00:59;;;;;;;1.38;1.30;;;22.10;59.20;;;;;;5013615;28;20191;-75
2022/05/23 06:03:30;;;;;;;1.27;1.17;;;22.10;59.30;;;;;;5013438;28;20599;-75
2022/05/23 06:11:39;;;;;;;1.60;1.50;;;22.10;59.30;;;;;;5013215;28;20184;-75
2022/05/23 06:14:14;;;;;;;1.77;1.50;;;22.10;59.40;;;;;;5013553;28;20234;-75
2022/05/23 06:16:45;;;;;;;2.47;1.85;;;22.10;59.40;;;;;;5013171;28;20704;-75
2022/05/23 06:19:20;;;;;;;1.70;1.30;;;22.10;59.40;;;;;;5013225;28;20172;-74
2022/05/23 06:22:05;;;;;;;1.42;1.33;;;22.10;59.40;;;;;;5041690;28;20206;-75
2022/05/23 06:24:33;;;;;;;1.48;1.38;;;22.10;59.30;;;;;;5012943;28;20228;-75
2022/05/23 06:27:06;;;;;;;1.48;1.38;;;22.20;59.40;;;;;;5029248;28;20187;-75
2022/05/23 06:30:06;;;;;;;1.38;1.27;;;22.20;59.40;;;;;;5033660;28;20647;-75
2022/05/23 06:32:45;;;;;;;1.55;1.40;;;22.10;59.40;;;;;;5013157;28;20175;-75
2022/05/23 06:35:16;;;;;;;1.95;1.50;;;22.10;59.40;;;;;;5045781;28;20216;-75
2022/05/23 06:37:43;;;;;;;1.70;1.60;;;22.10;59.40;;;;;;5029267;28;20184;-75
2022/05/23 06:40:31;;;;;;;1.42;1.33;;;22.20;59.50;;;;;;5012586;28;20246;-75
2022/05/23 06:43:18;;;;;;;1.40;1.30;;;22.20;59.50;;;;;;5012814;28;20199;-74
2022/05/23 06:46:01;;;;;;;1.90;1.30;;;22.20;59.60;;;;;;5012546;28;20187;-75
2022/05/23 06:48:56;;;;;;;1.90;1.20;;;22.20;59.60;;;;;;5012920;28;20279;-75
2022/05/23 06:51:41;;;;;;;1.67;1.58;;;22.20;59.60;;;;;;5040872;28;20211;-75
2022/05/23 06:54:07;;;;;;;1.98;1.77;;;22.20;59.60;;;;;;5012293;28;20307;-74
2022/05/23 06:56:43;;;;;;;1.20;1.20;;;22.20;59.60;;;;;;5012326;28;20266;-74
2022/05/23 06:59:11;;;;;;;1.30;1.20;;;22.20;59.70;;;;;;5028531;28;20198;-74
2022/05/23 07:01:44;;;;;;;1.30;1.20;;;22.20;59.60;;;;;;5012250;28;20191;-74
2022/05/23 07:13:04;;;;;;;2.45;1.30;;;22.30;59.90;;;;;;5012502;28;20228;-74
2022/05/23 07:15:38;;;;;;;1.95;1.30;;;22.30;59.90;;;;;;5011923;28;20224;-75
2022/05/23 07:18:06;;;;;;;1.77;1.33;;;22.30;60.70;;;;;;5011942;28;20196;-75
2022/05/23 07:20:50;;;;;;;2.10;1.20;;;22.30;59.90;;;;;;5011336;28;20188;-75
2022/05/23 07:23:25;;;;;;;2.95;1.38;;;22.30;59.80;;;;;;5011975;28;20190;-75
2022/05/23 07:25:59;;;;;;;1.42;1.33;;;22.30;59.80;;;;;;5029528;28;20563;-75
2022/05/23 07:28:50;;;;;;;1.23;1.13;;;22.30;60.60;;;;;;5031261;28;20180;-75
2022/05/23 07:31:20;;;;;;;1.77;1.20;;;22.30;59.90;;;;;;5028816;28;20227;-74
2022/05/23 07:33:46;;;;;;;1.48;1.38;;;22.30;60.00;;;;;;5011735;28;20196;-75
2022/05/23 07:36:18;;;;;;;2.83;1.60;;;22.30;60.00;;;;;;5012064;28;20200;-75
2022/05/23 07:38:45;;;;;;;1.58;1.30;;;22.30;59.90;;;;;;5027470;28;20187;-75
2022/05/23 07:41:22;;;;;;;1.60;1.30;;;22.30;59.80;;;;;;4996633;28;20180;-75
2022/05/23 07:43:53;;;;;;;1.83;1.58;;;22.30;59.90;;;;;;5012050;28;20204;-74
2022/05/23 07:46:20;;;;;;;1.40;1.30;;;22.30;59.90;;;;;;4995574;28;20190;-75
2022/05/23 07:48:49;;;;;;;1.30;1.20;;;22.30;59.90;;;;;;5011904;28;20188;-75
2022/05/23 07:51:21;;;;;;;1.40;1.30;;;22.30;59.90;;;;;;4995720;28;20192;-75
2022/05/23 08:02:17;;;;;;;1.45;1.35;;;22.30;60.20;;;;;;5011441;28;20199;-75
2022/05/23 08:04:55;;;;;;;1.70;1.60;;;22.40;60.20;;;;;;5011405;28;20199;-75
2022/05/23 08:07:21;;;;;;;1.70;1.60;;;22.30;60.10;;;;;;4995398;28;20267;-75
2022/05/23 08:09:50;;;;;;;1.50;1.40;;;22.40;60.20;;;;;;5001010;28;20180;-75
2022/05/23 08:12:17;;;;;;;1.67;1.52;;;22.30;60.00;;;;;;5007342;28;20184;-75
2022/05/23 08:14:43;;;;;;;1.42;1.33;;;22.40;60.20;;;;;;5011582;28;20211;-74
2022/05/23 08:17:18;;;;;;;2.10;1.95;;;22.40;60.30;;;;;;5011332;28;20217;-75
2022/05/23 08:19:45;;;;;;;2.22;1.67;;;22.40;60.20;;;;;;5027605;28;20176;-74
2022/05/23 08:22:28;;;;;;;2.28;1.52;;;22.40;60.10;;;;;;5011276;28;20180;-74
2022/05/23 08:25:19;;;;;;;2.08;1.48;;;22.40;60.20;;;;;;4998340;28;20211;-74
2022/05/23 08:27:55;;;;;;;2.78;1.88;;;22.40;60.20;;;;;;4996341;28;20180;-75
2022/05/23 08:30:22;;;;;;;1.67;1.58;;;22.40;60.20;;;;;;4994718;28;20278;-75
2022/05/23 08:32:50;;;;;;;1.67;1.58;;;22.40;60.20;;;;;;4997027;28;20188;-75
2022/05/23 08:35:18;;;;;;;1.73;1.63;;;22.40;60.20;;;;;;4999006;28;20227;-75
2022/05/23 08:37:54;;;;;;;1.50;1.40;;;22.40;60.20;;;;;;5015046;28;20186;-74
2022/05/23 08:41:31;;;;;;;1.58;1.48;;;22.40;60.10;;;;;;5015020;28;20196;-74
2022/05/23 08:44:22;;;;;;;1.60;1.50;;;22.40;60.30;;;;;;5002122;28;20222;-74
2022/05/23 08:47:05;;;;;;;2.47;1.60;;;22.50;60.50;;;;;;5014798;28;20210;-75
2022/05/23 08:49:54;;;;;;;1.88;1.30;;;22.50;60.40;;;;;;4998970;28;20188;-75
2022/05/23 08:52:58;;;;;;;1.50;1.40;;;22.50;60.40;;;;;;4998409;28;20188;-75
2022/05/23 08:56:00;;;;;;;1.60;1.50;;;22.50;60.40;;;;;;5014544;28;20251;-75
2022/05/23 08:58:54;;;;;;;1.70;1.60;;;22.50;60.40;;;;;;5014973;28;20186;-75
2022/05/23 09:01:30;;;;;;;1.77;1.67;;;22.50;60.50;;;;;;4998059;28;20208;-75
2022/05/23 09:04:32;;;;;;;2.17;1.60;;;22.50;60.50;;;;;;5014857;28;20220;-75
2022/05/23 09:07:02;;;;;;;2.55;1.60;;;22.50;60.50;;;;;;5014533;28;20191;-75
2022/05/23 09:09:31;;;;;;;1.80;1.63;;;22.50;60.70;;;;;;5014206;28;20274;-75
2022/05/23 09:12:10;;;;;;;1.70;1.60;;;22.50;60.70;;;;;;5014725;28;20330;-75
2022/05/23 09:14:41;;;;;;;1.58;1.48;;;22.50;60.90;;;;;;5015669;28;20215;-75
2022/05/23 09:17:21;;;;;;;1.70;1.60;;;22.50;60.80;;;;;;4997953;28;20219;-75
2022/05/23 09:20:18;;;;;;;2.05;1.60;;;22.50;60.80;;;;;;4997807;28;20225;-75
2022/05/23 09:22:56;;;;;;;1.45;1.33;;;22.50;60.70;;;;;;4997792;28;20242;-75
2022/05/23 09:25:26;;;;;;;1.83;1.65;;;22.50;61.30;;;;;;4997780;28;20212;-75
2022/05/23 09:28:22;;;;;;;1.75;1.65;;;22.50;60.90;;;;;;4998161;28;20219;-74
2022/05/23 09:31:04;;;;;;;3.40;2.05;;;22.50;61.20;;;;;;4997810;28;20184;-75
2022/05/23 09:33:31;;;;;;;2.00;1.80;;;22.50;61.00;;;;;;4997760;28;20180;-75
2022/05/23 09:36:14;;;;;;;1.90;1.70;;;22.50;61.10;;;;;;5014048;28;20232;-75
2022/05/23 09:39:00;;;;;;;2.28;1.85;;;22.50;61.30;;;;;;5014123;28;20538;-75
2022/05/23 09:47:47;;;;;;;3.20;1.90;;;22.50;61.30;;;;;;5013738;28;20192;-75
2022/05/23 09:50:25;;;;;;;1.80;1.70;;;22.50;61.40;;;;;;5030166;28;20172;-75
2022/05/23 09:52:56;;;;;;;1.83;1.70;;;22.50;61.50;;;;;;5013545;28;20195;-75
2022/05/23 09:55:31;;;;;;;1.75;1.65;;;22.50;61.80;;;;;;5014846;28;20220;-75
2022/05/23 09:58:34;;;;;;;3.60;2.08;;;22.50;61.50;;;;;;5013615;28;20175;-75
2022/05/23 10:01:08;;;;;;;3.65;1.90;;;22.50;62.00;;;;;;5011939;28;20234;-75
2022/05/23 10:03:37;;;;;;;1.95;1.83;;;22.50;61.70;;;;;;5013459;28;20187;-74
2022/05/23 10:06:13;;;;;;;2.05;1.73;;;22.50;61.90;;;;;;5013654;28;20187;-75
2022/05/23 10:08:46;;;;;;;2.22;2.03;;;22.50;61.70;;;;;;5013209;28;20172;-75
2022/05/23 10:11:38;;;;;;;2.92;2.17;;;22.50;61.90;;;;;;4999932;28;20179;-75
2022/05/23 10:14:16;;;;;;;2.40;2.20;;;22.50;62.00;;;;;;4996936;28;20234;-75
2022/05/23 10:16:47;;;;;;;1.92;1.77;;;22.50;62.60;;;;;;5013304;28;20273;-75
2022/05/23 10:19:31;;;;;;;2.20;2.00;;;22.50;62.50;;;;;;5014328;28;20176;-75
2022/05/23 10:22:22;;;;;;;2.30;2.03;;;22.40;62.20;;;;;;4996948;28;20179;-75
2022/05/23 10:25:06;;;;;;;2.90;2.30;;;22.50;62.20;;;;;;4996786;28;20269;-75
2022/05/23 10:27:55;;;;;;;2.50;2.30;;;22.50;62.20;;;;;;5012946;28;20230;-75
2022/05/23 10:30:25;;;;;;;2.97;2.50;;;22.50;62.40;;;;;;5012832;28;20560;-74
2022/05/23 10:33:10;;;;;;;2.85;2.38;;;22.50;62.60;;;;;;5012890;28;20183;-75
2022/05/23 10:36:03;;;;;;;2.63;2.42;;;22.50;62.70;;;;;;4996749;28;20263;-75
2022/05/23 10:44:36;;;;;;;3.58;2.65;;;22.50;62.40;;;;;;5013845;28;20207;-75
2022/05/23 10:47:29;;;;;;;2.90;2.40;;;22.50;62.60;;;;;;5013006;28;20180;-74
2022/05/23 10:50:26;;;;;;;2.40;2.20;;;22.50;62.90;;;;;;5028940;28;20535;-75
2022/05/23 10:53:33;;;;;;;2.78;2.58;;;22.50;62.80;;;;;;4993345;28;20184;-75
2022/05/23 10:56:20;;;;;;;2.70;2.08;;;22.50;62.80;;;;;;4992210;28;20205;-75
2022/05/23 10:58:57;;;;;;;2.53;2.33;;;22.50;63.20;;;;;;4992870;28;20184;-75
2022/05/23 11:01:35;;;;;;;2.90;2.70;;;22.50;63.10;;;;;;4992866;28;20222;-75
2022/05/23 11:04:56;;;;;;;2.70;2.50;;;22.50;63.40;;;;;;5021007;28;20302;-75
2022/05/23 11:07:54;;;;;;;2.40;2.20;;;22.50;63.00;;;;;;5011215;28;20184;-76
2022/05/23 11:11:17;;;;;;;2.90;2.70;;;22.50;63.60;;;;;;5006333;28;20283;-76
2022/05/23 11:14:19;;;;;;;2.70;2.45;;;22.50;63.60;;;;;;4991237;28;20185;-76
2022/05/23 11:17:09;;;;;;;2.65;2.42;;;22.50;63.60;;;;;;4978609;28;20221;-76
2022/05/23 11:20:03;;;;;;;2.83;2.50;;;22.50;63.80;;;;;;5007020;28;20193;-75
2022/05/23 11:22:35;;;;;;;3.75;2.70;;;22.50;63.90;;;;;;5036928;28;20618;-75
2022/05/23 11:25:23;;;;;;;3.95;2.78;;;22.50;64.30;;;;;;5017839;28;20207;-75
2022/05/23 11:33:58;;;;;;;2.85;2.08;;;22.50;64.60;;;;;;5007834;28;20183;-76
2022/05/23 11:36:44;;;;;;;3.65;2.45;;;22.50;64.60;;;;;;5017590;28;20223;-75
2022/05/23 11:39:42;;;;;;;2.60;2.40;;;22.50;63.60;;;;;;5017844;28;20188;-75
2022/05/23 11:42:39;;;;;;;5.93;2.22;;;22.40;64.10;;;;;;5027522;28;20191;-74
2022/05/23 11:45:56;;;;;;;3.40;2.30;;;22.40;64.90;;;;;;5027252;28;20287;-75
2022/05/23 11:47:59;;;;;;;2.78;2.58;;;22.40;65.00;;;;;;5009302;28;20184;-75
2022/05/23 11:50:33;;;;;;;2.97;2.00;;;22.40;64.50;;;;;;5012211;28;20271;-74
2022/05/23 11:53:37;;;;;;;2.63;2.22;;;22.40;64.60;;;;;;4999117;28;20540;-75
2022/05/23 11:56:40;;;;;;;3.17;2.08;;;22.40;64.10;;;;;;4988400;28;20228;-75
2022/05/23 11:59:25;;;;;;;2.28;2.08;;;22.40;64.60;;;;;;5008478;28;20208;-74
2022/05/23 12:02:10;;;;;;;2.92;2.10;;;22.40;64.70;;;;;;5006175;28;20177;-76
2022/05/23 12:04:48;;;;;;;3.17;2.35;;;22.50;64.40;;;;;;5008028;28;20714;-75
2022/05/23 12:07:37;;;;;;;2.58;2.20;;;22.40;64.20;;;;;;4991191;28;20208;-75
2022/05/23 12:10:21;;;;;;;2.30;2.10;;;22.40;64.00;;;;;;4971856;28;20207;-75
2022/05/23 12:12:57;;;;;;;2.38;2.17;;;22.40;64.00;;;;;;4975001;28;20284;-75
2022/05/23 12:15:46;;;;;;;2.10;2.00;;;22.40;64.30;;;;;;4990966;28;20224;-75
2022/05/23 12:18:24;;;;;;;3.15;2.13;;;22.40;64.10;;;;;;4976500;28;20286;-75
2022/05/23 12:20:52;;;;;;;2.10;1.98;;;22.40;64.30;;;;;;4994759;28;20199;-74
2022/05/23 12:23:37;;;;;;;2.38;2.00;;;22.50;64.20;;;;;;4995140;28;20195;-74
2022/05/23 12:26:10;;;;;;;2.10;1.90;;;22.50;64.10;;;;;;5012565;28;20204;-75
2022/05/23 12:28:58;;;;;;;3.30;2.20;;;22.40;64.00;;;;;;5011363;28;20177;-75
2022/05/23 12:31:27;;;;;;;2.75;2.17;;;22.50;63.70;;;;;;5011412;28;20177;-75
2022/05/23 12:34:02;;;;;;;3.53;2.13;;;22.50;63.60;;;;;;5011086;28;20210;-75
2022/05/23 12:36:31;;;;;;;2.42;1.92;;;22.50;63.80;;;;;;5012306;28;20203;-75
2022/05/23 12:39:30;;;;;;;3.78;2.00;;;22.50;63.60;;;;;;4995060;28;20176;-75
2022/05/23 12:42:14;;;;;;;3.03;2.03;;;22.60;64.50;;;;;;5012216;28;20173;-75
2022/05/23 12:45:11;;;;;;;2.92;1.80;;;22.60;63.70;;;;;;5011241;28;20208;-75
2022/05/23 12:47:57;;;;;;;2.25;2.05;;;22.60;63.70;;;;;;5011052;28;20184;-75
2022/05/23 12:51:06;;;;;;;2.42;2.10;;;22.60;64.00;;;;;;5010853;28;20188;-76
2022/05/23 12:54:01;;;;;;;2.20;2.00;;;22.60;63.80;;;;;;5011020;28;20346;-77
2022/05/23 12:56:39;;;;;;;1.70;1.60;;;22.60;63.70;;;;;;5010923;28;20256;-76
2022/05/23 12:59:50;;;;;;;3.45;1.90;;;22.60;63.70;;;;;;5011133;28;20195;-76
2022/05/23 13:02:35;;;;;;;3.53;2.05;;;22.60;63.60;;;;;;5011021;28;20176;-76
2022/05/23 13:05:17;;;;;;;2.33;1.80;;;22.60;63.70;;;;;;5010965;28;20226;-76
2022/05/23 13:08:06;;;;;;;2.70;1.92;;;22.60;64.20;;;;;;5012516;28;20626;-76
2022/05/23 13:10:42;;;;;;;2.58;1.80;;;22.60;64.20;;;;;;5011473;28;20180;-76
2022/05/23 13:13:35;;;;;;;4.85;1.77;;;22.60;63.80;;;;;;5011683;28;20179;-76
2022/05/23 13:16:26;;;;;;;2.72;1.90;;;22.60;63.60;;;;;;5011589;28;20213;-76
2022/05/23 13:27:48;;;;;;;2.92;1.98;;;22.60;63.80;;;;;;5014597;28;20185;-76
2022/05/23 13:30:17;;;;;;;4.13;1.95;;;22.60;63.80;;;;;;5014409;28;20188;-76
2022/05/23 13:32:44;;;;;;;3.13;1.85;;;22.60;64.00;;;;;;5014456;28;20187;-76
2022/05/23 13:35:23;;;;;;;2.58;1.65;;;22.60;64.30;;;;;;5014518;28;20276;-76
2022/05/23 13:37:50;;;;;;;2.22;1.65;;;22.60;64.50;;;;;;4997969;28;20259;-76
2022/05/23 13:40:29;;;;;;;3.20;1.75;;;22.60;64.40;;;;;;5014317;28;20524;-75
2022/05/23 13:43:12;;;;;;;3.83;2.05;;;22.60;64.50;;;;;;5014629;28;20192;-76
2022/05/23 13:45:41;;;;;;;2.28;1.75;;;22.60;64.50;;;;;;5014426;28;20219;-76
2022/05/23 13:48:19;;;;;;;3.53;1.83;;;22.60;64.40;;;;;;5015309;28;20184;-76
2022/05/23 13:50:54;;;;;;;3.90;1.70;;;22.60;64.20;;;;;;5013854;28;20184;-76
2022/05/23 13:53:31;;;;;;;1.73;1.58;;;22.60;64.40;;;;;;5015398;28;20212;-76
2022/05/23 13:56:02;;;;;;;3.17;1.60;;;22.60;64.70;;;;;;5013882;28;20330;-76
2022/05/23 13:58:35;;;;;;;3.10;1.90;;;22.60;64.90;;;;;;5014273;28;20172;-76
2022/05/23 14:01:07;;;;;;;2.83;1.83;;;22.60;64.50;;;;;;5014093;28;20187;-76
2022/05/23 14:03:43;;;;;;;2.08;1.55;;;22.60;64.70;;;;;;5013932;28;20187;-76
2022/05/23 14:06:19;;;;;;;2.95;1.75;;;22.60;64.80;;;;;;5015228;28;20180;-76
2022/05/23 14:08:55;;;;;;;3.03;1.80;;;22.60;64.70;;;;;;5013687;28;20176;-75
2022/05/23 14:11:39;;;;;;;2.45;1.85;;;22.60;64.70;;;;;;4997255;28;20184;-75
2022/05/23 14:14:20;;;;;;;4.25;2.03;;;22.60;64.50;;;;;;5013727;28;20211;-75
2022/05/23 14:16:51;;;;;;;2.53;1.63;;;22.60;64.80;;;;;;5013611;28;20192;-75
2022/05/23 14:19:26;;;;;;;4.57;2.45;;;22.60;64.90;;;;;;5013562;28;20566;-75
2022/05/23 14:22:21;;;;;;;2.00;1.70;;;22.60;64.90;;;;;;5013643;28;20175;-76
2022/05/23 14:24:55;;;;;;;2.60;1.80;;;22.60;65.00;;;;;;4997090;28;20295;-75
2022/05/23 14:27:27;;;;;;;3.38;1.42;;;22.60;64.90;;;;;;4997074;28;20570;-75
2022/05/23 14:30:27;;;;;;;2.17;1.58;;;22.60;64.80;;;;;;5013205;28;20215;-75
2022/05/23 14:33:04;;;;;;;2.58;1.67;;;22.60;64.40;;;;;;5000190;28;20231;-75
2022/05/23 14:35:49;;;;;;;4.28;1.65;;;22.60;64.40;;;;;;5013267;28;20662;-75
2022/05/23 14:38:49;;;;;;;3.00;1.60;;;22.60;64.60;;;;;;5014695;28;20179;-75
2022/05/23 14:41:18;;;;;;;1.85;1.50;;;22.60;64.60;;;;;;4996734;28;20338;-75
2022/05/23 14:43:46;;;;;;;2.38;1.55;;;22.60;64.60;;;;;;5013141;28;20286;-76